sensor_id;sensor_type;location;lat;lon;timestamp;pressure;altitude;pressure_sealevel;temperature;humidity
76216;BME280;65010;50.190;18.930;2024-01-06T20:19:57;97606.63;;;2.40;71.80
76216;BME280;65010;50.190;18.930;2024-01-06T20:23:04;97610.56;;;2.44;72.18
76216;BME280;65010;50.190;18.930;2024-01-06T20:26:11;97603.09;;;2.41;71.90
76216;BME280;65010;50.190;18.930;2024-01-06T20:29:18;97611.81;;;2.40;71.45
76216;BME280;65010;50.190;18.930;2024-01-06T20:32:24;97606.22;;;2.35;71.38
76216;BME280;65010;50.190;18.930;2024-01-06T20:35:34;97611.69;;;2.32;71.20
76216;BME280;65010;50.190;18.930;2024-01-06T20:38:40;97615.38;;;2.29;71.36
76216;BME280;65010;50.190;18.930;2024-01-06T20:41:47;97615.38;;;2.29;71.54
76216;BME280;65010;50.190;18.930;2024-01-06T20:44:53;97610.47;;;2.26;71.52
76216;BME280;65010;50.190;18.930;2024-01-06T20:48:00;97617.97;;;2.29;71.69
76216;BME280;65010;50.190;18.930;2024-01-06T20:51:18;97619.34;;;2.23;71.19
76216;BME280;65010;50.190;18.930;2024-01-06T20:54:25;97627.13;;;2.23;71.06
76216;BME280;65010;50.190;18.930;2024-01-06T20:57:30;97631.22;;;2.26;71.27
76216;BME280;65010;50.190;18.930;2024-01-06T21:00:37;97624.25;;;2.26;71.01
76216;BME280;65010;50.190;18.930;2024-01-06T21:03:43;97623.56;;;2.24;71.02
76216;BME280;65010;50.190;18.930;2024-01-06T21:06:52;97622.06;;;2.22;70.75
76216;BME280;65010;50.190;18.930;2024-01-06T21:09:59;97623.19;;;2.19;70.73
76216;BME280;65010;50.190;18.930;2024-01-06T21:13:07;97623.59;;;2.15;70.71
76216;BME280;65010;50.190;18.930;2024-01-06T21:16:13;97618.25;;;2.06;70.80
76216;BME280;65010;50.190;18.930;2024-01-06T21:19:21;97638.06;;;2.07;71.02
76216;BME280;65010;50.190;18.930;2024-01-06T21:22:33;97632.19;;;2.05;71.05
76216;BME280;65010;50.190;18.930;2024-01-06T21:25:39;97633.56;;;2.00;70.69
76216;BME280;65010;50.190;18.930;2024-01-06T21:28:46;97641.06;;;1.93;70.81
76216;BME280;65010;50.190;18.930;2024-01-06T21:31:53;97645.44;;;1.93;71.82
76216;BME280;65010;50.190;18.930;2024-01-06T21:34:59;97639.16;;;1.95;72.02
76216;BME280;65010;50.190;18.930;2024-01-06T21:38:13;97641.19;;;1.92;71.73
76216;BME280;65010;50.190;18.930;2024-01-06T21:41:18;97642.16;;;1.81;71.42
76216;BME280;65010;50.190;18.930;2024-01-06T21:44:26;97648.41;;;1.78;71.82
76216;BME280;65010;50.190;18.930;2024-01-06T21:47:31;97645.13;;;1.76;71.81
76216;BME280;65010;50.190;18.930;2024-01-06T21:50:38;97644.44;;;1.74;71.76
76216;BME280;65010;50.190;18.930;2024-01-06T21:53:47;97641.84;;;1.74;71.64
76216;BME280;65010;50.190;18.930;2024-01-06T21:56:53;97651.16;;;1.77;72.06
76216;BME280;65010;50.190;18.930;2024-01-06T21:59:59;97648.69;;;1.75;71.89
76216;BME280;65010;50.190;18.930;2024-01-06T22:03:11;97648.13;;;1.72;71.05
76216;BME280;65010;50.190;18.930;2024-01-06T22:06:17;97648.13;;;1.62;70.54
76216;BME280;65010;50.190;18.930;2024-01-06T22:09:27;97654.94;;;1.53;70.68
76216;BME280;65010;50.190;18.930;2024-01-06T22:12:34;97639.50;;;1.42;71.22
76216;BME280;65010;50.190;18.930;2024-01-06T22:15:40;97657.66;;;1.52;71.18
76216;BME280;65010;50.190;18.930;2024-01-06T22:18:47;97655.88;;;1.52;71.27
76216;BME280;65010;50.190;18.930;2024-01-06T22:21:53;97656.03;;;1.50;71.66
76216;BME280;65010;50.190;18.930;2024-01-06T22:25:02;97655.06;;;1.52;71.63
76216;BME280;65010;50.190;18.930;2024-01-06T22:28:10;97654.66;;;1.56;71.36
76216;BME280;65010;50.190;18.930;2024-01-06T22:31:17;97652.47;;;1.52;70.82
76216;BME280;65010;50.190;18.930;2024-01-06T22:34:23;97657.38;;;1.45;70.79
76216;BME280;65010;50.190;18.930;2024-01-06T22:37:29;97651.50;;;1.43;70.70
76216;BME280;65010;50.190;18.930;2024-01-06T22:40:39;97664.56;;;1.41;70.84
76216;BME280;65010;50.190;18.930;2024-01-06T22:43:45;97662.97;;;1.40;70.72
76216;BME280;65010;50.190;18.930;2024-01-06T22:46:52;97663.09;;;1.39;70.37
76216;BME280;65010;50.190;18.930;2024-01-06T22:49:57;97662.53;;;1.35;70.48
76216;BME280;65010;50.190;18.930;2024-01-06T22:53:04;97667.69;;;1.35;70.26
76216;BME280;65010;50.190;18.930;2024-01-06T22:56:13;97659.09;;;1.25;69.55
76216;BME280;65010;50.190;18.930;2024-01-06T22:59:20;97663.28;;;1.16;70.35
76216;BME280;65010;50.190;18.930;2024-01-06T23:02:25;97664.88;;;1.07;70.65
76216;BME280;65010;50.190;18.930;2024-01-06T23:05:32;97665.28;;;1.03;70.98
76216;BME280;65010;50.190;18.930;2024-01-06T23:08:38;97664.06;;;1.07;71.35
76216;BME280;65010;50.190;18.930;2024-01-06T23:11:49;97670.75;;;1.09;71.47
76216;BME280;65010;50.190;18.930;2024-01-06T23:14:55;97671.31;;;1.13;71.54
76216;BME280;65010;50.190;18.930;2024-01-06T23:18:02;97677.59;;;1.20;71.79
76216;BME280;65010;50.190;18.930;2024-01-06T23:21:08;97678.81;;;1.26;71.51
76216;BME280;65010;50.190;18.930;2024-01-06T23:24:15;97676.00;;;1.29;70.90
76216;BME280;65010;50.190;18.930;2024-01-06T23:27:25;97673.28;;;1.30;70.62
76216;BME280;65010;50.190;18.930;2024-01-06T23:30:33;97676.13;;;1.27;69.94
76216;BME280;65010;50.190;18.930;2024-01-06T23:33:40;97670.91;;;1.18;69.04
76216;BME280;65010;50.190;18.930;2024-01-06T23:36:47;97676.22;;;1.16;69.85
76216;BME280;65010;50.190;18.930;2024-01-06T23:39:54;97673.66;;;1.16;70.35
76216;BME280;65010;50.190;18.930;2024-01-06T23:43:04;97679.34;;;1.20;70.45
76216;BME280;65010;50.190;18.930;2024-01-06T23:46:12;97680.44;;;1.17;69.87
76216;BME280;65010;50.190;18.930;2024-01-06T23:49:18;97676.34;;;1.15;69.83
76216;BME280;65010;50.190;18.930;2024-01-06T23:52:25;97679.47;;;1.08;69.56
76216;BME280;65010;50.190;18.930;2024-01-06T23:55:32;97673.03;;;1.03;69.96
76216;BME280;65010;50.190;18.930;2024-01-06T23:58:41;97678.50;;;1.09;70.44
